createdAt,value
2023-05-05T00:01:34.206Z,4.93
2023-05-05T00:04:01.329Z,5.20
2023-05-05T00:06:31.609Z,5.30
2023-05-05T00:08:58.564Z,3.95
2023-05-05T00:11:26.108Z,4.53
2023-05-05T00:13:52.976Z,4.68
2023-05-05T00:16:20.128Z,5.35
2023-05-05T00:18:48.410Z,4.30
2023-05-05T00:21:15.797Z,4.68
2023-05-05T00:23:42.704Z,4.78
2023-05-05T00:26:09.562Z,3.40
2023-05-05T00:28:37.920Z,3.65
2023-05-05T00:31:05.045Z,4.32
2023-05-05T00:33:32.058Z,4.10
2023-05-05T00:36:00.376Z,3.80
2023-05-05T00:38:27.381Z,4.25
2023-05-05T00:40:54.435Z,3.45
2023-05-05T00:43:21.683Z,3.95
2023-05-05T00:45:52.928Z,4.22
2023-05-05T00:48:19.927Z,4.18
2023-05-05T00:50:46.794Z,3.35
2023-05-05T00:53:15.069Z,3.55
2023-05-05T00:55:41.986Z,3.33
2023-05-05T00:58:10.055Z,3.83
2023-05-05T01:00:37.026Z,3.35
2023-05-05T01:03:05.289Z,3.63
2023-05-05T01:05:36.402Z,3.85
2023-05-05T01:08:13.981Z,3.13
2023-05-05T01:10:47.065Z,2.95
2023-05-05T01:13:22.714Z,3.42
2023-05-05T01:15:53.558Z,3.30
2023-05-05T01:18:32.724Z,4.05
2023-05-05T01:21:03.208Z,2.95
2023-05-05T01:23:51.034Z,3.40
2023-05-05T01:26:38.237Z,3.25
2023-05-05T01:29:26.248Z,3.65
2023-05-05T01:31:57.132Z,3.33
2023-05-05T01:34:26.788Z,3.22
2023-05-05T01:36:57.664Z,3.22
2023-05-05T01:39:28.014Z,4.65
2023-05-05T01:41:59.014Z,3.78
2023-05-05T01:44:27.422Z,4.05
2023-05-05T01:46:56.101Z,3.35
2023-05-05T01:49:23.140Z,3.47
2023-05-05T01:51:50.111Z,3.60
2023-05-05T01:54:18.719Z,4.75
2023-05-05T01:59:13.238Z,4.18
2023-05-05T02:01:45.949Z,3.17
2023-05-05T02:04:15.266Z,3.47
2023-05-05T02:06:43.909Z,4.05
2023-05-05T02:14:05.870Z,3.50
2023-05-05T02:16:33.519Z,3.90
2023-05-05T02:19:05.106Z,3.67
2023-05-05T02:21:33.964Z,3.80
2023-05-05T02:24:01.375Z,3.30
2023-05-05T02:26:29.988Z,3.30
2023-05-05T02:29:03.352Z,3.05
2023-05-05T02:31:31.560Z,3.40
2023-05-05T02:33:59.697Z,3.33
2023-05-05T02:36:28.952Z,2.78
2023-05-05T02:39:04.770Z,2.67
2023-05-05T02:41:38.824Z,3.67
2023-05-05T02:44:12.924Z,3.30
2023-05-05T02:49:07.393Z,3.13
2023-05-05T02:51:35.183Z,3.25
2023-05-05T02:54:08.486Z,4.28
2023-05-05T02:56:41.036Z,3.20
2023-05-05T02:59:13.325Z,2.88
2023-05-05T03:01:51.412Z,3.90
2023-05-05T03:04:25.083Z,2.95
2023-05-05T03:06:57.438Z,3.20
2023-05-05T03:09:30.954Z,3.50
2023-05-05T03:12:01.271Z,2.83
2023-05-05T03:14:33.356Z,4.05
2023-05-05T03:17:01.578Z,2.92
2023-05-05T03:19:29.804Z,4.70
2023-05-05T03:22:00.868Z,3.85
2023-05-05T03:24:29.348Z,4.53
2023-05-05T03:27:04.438Z,4.13
2023-05-05T03:29:35.707Z,3.20
2023-05-05T03:34:32.553Z,2.80
2023-05-05T03:37:01.897Z,2.50
2023-05-05T03:39:30.247Z,2.10
2023-05-05T03:41:58.026Z,3.22
2023-05-05T03:44:28.967Z,1.85
2023-05-05T03:46:56.962Z,1.73
2023-05-05T03:49:24.554Z,2.45
2023-05-05T03:51:52.359Z,2.85
2023-05-05T03:54:19.361Z,2.80
2023-05-05T03:56:47.649Z,2.03
2023-05-05T03:59:14.535Z,2.60
2023-05-05T04:01:41.671Z,2.50
2023-05-05T04:04:09.659Z,2.53
2023-05-05T04:06:36.741Z,2.40
2023-05-05T04:09:03.742Z,1.95
2023-05-05T04:11:31.409Z,1.88
2023-05-05T04:13:59.832Z,2.30
2023-05-05T04:16:28.915Z,2.25
2023-05-05T04:18:56.615Z,2.33
2023-05-05T04:21:23.664Z,2.30
2023-05-05T04:23:50.622Z,2.25
2023-05-05T04:26:17.887Z,3.05
2023-05-05T04:28:45.392Z,2.78
2023-05-05T04:31:13.742Z,2.63
2023-05-05T04:33:42.616Z,2.67
2023-05-05T04:36:10.225Z,2.85
2023-05-05T04:38:37.217Z,3.20
2023-05-05T04:41:06.433Z,4.50
2023-05-05T04:43:34.544Z,4.30
2023-05-05T04:46:01.807Z,4.25
2023-05-05T04:48:34.274Z,4.20
2023-05-05T04:51:04.733Z,4.70
2023-05-05T04:53:32.042Z,3.90
2023-05-05T04:56:00.092Z,5.10
2023-05-05T04:58:27.560Z,5.05
2023-05-05T05:00:55.350Z,4.88
2023-05-05T05:03:22.482Z,5.07
2023-05-05T05:05:50.994Z,4.78
2023-05-05T05:08:18.056Z,4.78
2023-05-05T05:10:45.174Z,4.00
2023-05-05T05:13:13.002Z,3.33
2023-05-05T05:15:40.792Z,3.58
2023-05-05T05:18:07.936Z,4.03
2023-05-05T05:20:34.985Z,3.08
2023-05-05T05:23:04.399Z,3.10
2023-05-05T05:25:33.633Z,2.35
2023-05-05T05:28:09.593Z,2.33
2023-05-05T05:30:41.868Z,2.70
2023-05-05T05:33:10.802Z,1.98
2023-05-05T05:35:38.718Z,2.22
2023-05-05T05:38:07.566Z,2.28
2023-05-05T05:40:34.546Z,3.00
2023-05-05T05:43:02.949Z,1.98
2023-05-05T05:45:30.323Z,1.65
2023-05-05T05:47:57.298Z,1.63
2023-05-05T05:50:27.156Z,1.83
2023-05-05T05:52:54.298Z,1.52
2023-05-05T05:55:22.786Z,1.15
2023-05-05T05:57:49.697Z,2.10
2023-05-05T06:00:16.933Z,1.23
2023-05-05T06:02:51.689Z,1.40
2023-05-05T06:05:22.034Z,1.65
2023-05-05T06:07:51.061Z,1.95
2023-05-05T06:15:21.761Z,1.60
2023-05-05T06:17:48.984Z,1.27
2023-05-05T06:20:15.964Z,1.70
2023-05-05T06:22:42.948Z,1.48
2023-05-05T06:25:11.069Z,1.63
2023-05-05T06:27:38.429Z,1.38
2023-05-05T06:30:09.754Z,1.50
2023-05-05T06:32:36.815Z,1.40
2023-05-05T06:35:04.056Z,1.58
2023-05-05T06:37:30.951Z,1.95
2023-05-05T06:39:57.866Z,1.70
2023-05-05T06:42:24.840Z,1.42
2023-05-05T06:44:53.441Z,1.40
2023-05-05T06:47:22.262Z,1.25
2023-05-05T06:49:49.251Z,1.48
2023-05-05T06:52:16.360Z,1.80
2023-05-05T06:54:43.757Z,1.30
2023-05-05T06:57:10.857Z,1.13
2023-05-05T06:59:37.767Z,1.70
2023-05-05T07:02:04.617Z,1.10
2023-05-05T07:04:32.924Z,0.95
2023-05-05T07:06:59.790Z,1.73
2023-05-05T07:09:26.761Z,1.30
2023-05-05T07:11:53.662Z,1.25
2023-05-05T07:14:22.761Z,1.30
2023-05-05T07:16:51.543Z,1.63
2023-05-05T07:19:18.777Z,1.48
2023-05-05T07:21:47.724Z,1.80
2023-05-05T07:24:14.581Z,1.33
2023-05-05T07:26:41.633Z,1.60
2023-05-05T07:29:08.700Z,1.65
2023-05-05T07:31:35.698Z,1.40
2023-05-05T07:34:02.629Z,1.77
2023-05-05T07:36:29.591Z,1.80
2023-05-05T07:38:57.899Z,1.58
2023-05-05T07:41:24.958Z,1.65
2023-05-05T07:43:51.846Z,1.85
2023-05-05T07:46:18.785Z,2.05
2023-05-05T07:48:45.655Z,1.95
2023-05-05T07:51:12.671Z,1.85
2023-05-05T07:53:41.041Z,1.98
2023-05-05T07:56:09.369Z,2.00
2023-05-05T08:01:03.006Z,1.75
2023-05-05T08:03:30.011Z,1.73
2023-05-05T08:05:57.087Z,1.67
2023-05-05T08:08:25.031Z,1.90
2023-05-05T08:10:53.310Z,1.60
2023-05-05T08:13:21.728Z,2.08
2023-05-05T08:15:48.683Z,2.20
2023-05-05T08:18:15.673Z,2.33
2023-05-05T08:20:42.638Z,2.13
2023-05-05T08:23:09.535Z,1.60
2023-05-05T08:25:36.548Z,2.30
2023-05-05T08:28:03.665Z,1.80
2023-05-05T08:30:31.918Z,2.10
2023-05-05T08:32:59.338Z,1.90
2023-05-05T08:35:26.308Z,1.85
2023-05-05T08:37:53.210Z,2.33
2023-05-05T08:40:21.419Z,2.40
2023-05-05T08:42:48.467Z,1.73
2023-05-05T08:45:15.989Z,1.60
2023-05-05T08:47:44.687Z,2.67
2023-05-05T08:50:12.424Z,1.33
2023-05-05T08:52:40.873Z,1.83
2023-05-05T08:55:14.400Z,1.67
2023-05-05T08:57:45.577Z,1.38
2023-05-05T09:00:13.592Z,1.48
2023-05-05T09:02:44.204Z,1.35
2023-05-05T09:05:11.344Z,1.63
2023-05-05T09:07:41.193Z,1.60
2023-05-05T09:10:09.731Z,1.60
2023-05-05T09:12:40.366Z,1.17
2023-05-05T09:15:09.850Z,1.58
2023-05-05T09:17:37.017Z,1.58
2023-05-05T09:20:07.470Z,0.95
2023-05-05T09:22:36.863Z,0.85
2023-05-05T09:25:04.569Z,0.95
2023-05-05T09:27:31.716Z,0.90
2023-05-05T09:29:58.660Z,0.90
2023-05-05T09:32:27.583Z,1.30
2023-05-05T09:34:59.227Z,1.15
2023-05-05T09:37:31.585Z,1.80
2023-05-05T09:40:01.180Z,1.30
2023-05-05T09:42:28.335Z,1.17
2023-05-05T09:44:56.061Z,1.40
2023-05-05T09:47:34.925Z,1.20
2023-05-05T09:50:02.775Z,1.10
2023-05-05T09:52:32.030Z,1.20
2023-05-05T09:54:58.981Z,1.15
2023-05-05T09:57:27.215Z,0.93
2023-05-05T09:59:58.109Z,1.13
2023-05-05T10:02:32.866Z,1.42
2023-05-05T10:05:11.030Z,1.00
2023-05-05T10:07:40.174Z,1.50
2023-05-05T10:10:09.030Z,1.30
2023-05-05T10:12:37.169Z,1.33
2023-05-05T10:17:33.037Z,1.25
2023-05-05T10:20:01.382Z,1.33
2023-05-05T10:22:30.542Z,1.33
2023-05-05T10:25:03.665Z,1.52
2023-05-05T10:27:34.955Z,1.13
2023-05-05T10:30:04.538Z,1.13
2023-05-05T10:32:55.961Z,1.27
2023-05-05T10:35:23.472Z,1.23
2023-05-05T10:37:51.048Z,1.67
2023-05-05T10:40:22.209Z,1.35
2023-05-05T10:42:50.944Z,1.58
2023-05-05T10:45:18.001Z,1.55
2023-05-05T10:47:45.160Z,1.50
2023-05-05T10:50:16.453Z,1.58
2023-05-05T10:52:48.161Z,1.48
2023-05-05T10:55:21.147Z,1.83
2023-05-05T10:57:52.559Z,1.60
2023-05-05T11:00:49.809Z,2.28
2023-05-05T11:03:21.491Z,1.65
2023-05-05T11:06:09.425Z,2.00
2023-05-05T11:08:36.895Z,1.83
2023-05-05T11:11:06.097Z,1.77
2023-05-05T11:13:33.157Z,1.67
2023-05-05T11:16:02.041Z,1.38
2023-05-05T11:18:36.602Z,1.95
2023-05-05T11:21:17.217Z,1.67
2023-05-05T11:23:48.799Z,1.73
2023-05-05T11:26:18.850Z,1.55
2023-05-05T11:29:00.534Z,1.10
2023-05-05T11:31:28.516Z,1.23
2023-05-05T11:33:55.497Z,1.27
2023-05-05T11:36:40.106Z,1.52
2023-05-05T11:39:19.316Z,1.17
2023-05-05T11:41:59.844Z,1.67
2023-05-05T11:44:30.879Z,1.75
2023-05-05T11:47:26.980Z,1.63
2023-05-05T11:49:55.491Z,1.08
2023-05-05T11:52:24.833Z,1.00
2023-05-05T11:54:51.780Z,1.35
2023-05-05T11:57:21.868Z,1.88
2023-05-05T11:59:54.956Z,0.95
2023-05-05T12:02:22.729Z,1.20
2023-05-05T12:04:50.948Z,1.08
2023-05-05T12:07:18.843Z,1.23
2023-05-05T12:09:47.025Z,1.17
2023-05-05T12:12:14.602Z,1.40
2023-05-05T12:14:53.262Z,0.82
2023-05-05T12:17:21.313Z,1.00
2023-05-05T12:22:19.553Z,1.10
2023-05-05T12:24:54.995Z,1.30
2023-05-05T12:27:22.557Z,1.08
2023-05-05T12:29:51.479Z,1.05
2023-05-05T12:32:20.109Z,1.08
2023-05-05T12:34:47.163Z,0.82
2023-05-05T12:37:15.804Z,1.42
2023-05-05T12:39:42.775Z,1.05
2023-05-05T12:42:09.681Z,1.00
2023-05-05T12:44:37.238Z,1.10
2023-05-05T12:47:05.868Z,0.60
2023-05-05T12:49:34.231Z,0.95
2023-05-05T12:52:01.312Z,0.88
2023-05-05T12:54:29.811Z,1.33
2023-05-05T12:56:59.694Z,0.93
2023-05-05T12:59:31.094Z,1.35
2023-05-05T13:02:00.083Z,0.93
2023-05-05T13:04:28.862Z,1.25
2023-05-05T13:07:09.089Z,1.55
2023-05-05T13:09:36.067Z,1.23
2023-05-05T13:12:03.919Z,1.00
2023-05-05T13:14:31.872Z,1.10
2023-05-05T13:19:25.986Z,0.70
2023-05-05T13:21:55.608Z,1.08
2023-05-05T13:24:34.464Z,1.40
2023-05-05T13:27:09.701Z,1.20
2023-05-05T13:29:36.768Z,0.90
2023-05-05T13:32:03.857Z,1.20
2023-05-05T13:34:30.866Z,0.75
2023-05-05T13:36:59.330Z,1.23
2023-05-05T13:39:26.643Z,0.75
2023-05-05T13:41:53.949Z,1.05
2023-05-05T13:44:20.859Z,1.13
2023-05-05T13:46:47.890Z,1.30
2023-05-05T13:49:14.881Z,1.13
2023-05-05T13:51:41.872Z,1.23
2023-05-05T13:54:10.524Z,1.35
2023-05-05T13:56:37.500Z,0.85
2023-05-05T13:59:04.527Z,1.40
2023-05-05T14:01:31.454Z,0.90
2023-05-05T14:03:58.570Z,1.25
2023-05-05T14:06:26.478Z,0.88
2023-05-05T14:08:53.643Z,1.13
2023-05-05T14:11:21.902Z,1.20
2023-05-05T14:13:48.972Z,1.23
2023-05-05T14:16:16.118Z,1.40
2023-05-05T14:18:43.200Z,1.38
2023-05-05T14:21:10.637Z,1.40
2023-05-05T14:23:37.540Z,1.17
2023-05-05T14:26:04.485Z,1.40
2023-05-05T14:28:32.795Z,1.33
2023-05-05T14:30:59.675Z,1.63
2023-05-05T14:33:26.901Z,1.05
2023-05-05T14:35:53.911Z,1.20
2023-05-05T14:38:20.838Z,1.55
2023-05-05T14:40:47.838Z,1.20
2023-05-05T14:43:14.727Z,0.93
2023-05-05T14:45:44.333Z,1.35
2023-05-05T14:48:11.375Z,1.13
2023-05-05T14:50:39.987Z,1.58
2023-05-05T14:53:06.929Z,1.60
2023-05-05T14:55:33.942Z,1.70
2023-05-05T14:58:01.055Z,1.83
2023-05-05T15:00:28.514Z,1.20
2023-05-05T15:02:56.891Z,1.50
2023-05-05T15:05:23.926Z,1.30
2023-05-05T15:07:50.939Z,1.50
2023-05-05T15:10:19.657Z,1.15
2023-05-05T15:12:48.630Z,1.27
2023-05-05T15:15:15.575Z,1.33
2023-05-05T15:17:43.221Z,1.42
2023-05-05T15:20:12.329Z,1.48
2023-05-05T15:22:39.289Z,1.48
2023-05-05T15:25:10.986Z,1.17
2023-05-05T15:27:38.425Z,1.48
2023-05-05T15:30:06.683Z,1.05
2023-05-05T15:32:33.624Z,1.17
2023-05-05T15:35:00.612Z,1.10
2023-05-05T15:37:29.062Z,1.10
2023-05-05T15:39:56.322Z,1.00
2023-05-05T15:42:23.355Z,2.00
2023-05-05T15:44:50.555Z,1.88
2023-05-05T15:47:17.731Z,1.42
2023-05-05T15:49:44.657Z,1.63
2023-05-05T15:52:12.811Z,1.17
2023-05-05T15:54:41.465Z,1.40
2023-05-05T15:57:08.452Z,1.17
2023-05-05T15:59:35.499Z,1.23
2023-05-05T16:02:02.695Z,1.30
2023-05-05T16:04:29.846Z,1.42
2023-05-05T16:06:58.078Z,1.00
2023-05-05T16:09:25.094Z,1.10
2023-05-05T16:11:54.635Z,1.30
2023-05-05T16:14:21.540Z,1.40
2023-05-05T16:16:48.631Z,1.05
2023-05-05T16:19:15.971Z,0.80
2023-05-05T16:21:42.904Z,1.42
2023-05-05T16:24:10.010Z,1.67
2023-05-05T16:26:36.982Z,1.38
2023-05-05T16:29:05.301Z,1.40
2023-05-05T16:31:34.022Z,1.10
2023-05-05T16:34:01.032Z,1.15
2023-05-05T16:36:28.295Z,1.20
2023-05-05T16:38:55.327Z,1.00
2023-05-05T16:41:22.741Z,1.15
2023-05-05T16:43:49.940Z,1.20
2023-05-05T16:46:18.478Z,1.48
2023-05-05T16:48:46.166Z,1.48
2023-05-05T16:51:13.136Z,1.35
2023-05-05T16:53:40.117Z,2.13
2023-05-05T16:56:07.287Z,2.47
2023-05-05T16:58:34.176Z,3.40
2023-05-05T17:01:02.800Z,2.85
2023-05-05T17:03:31.214Z,3.17
2023-05-05T17:05:58.248Z,3.08
2023-05-05T17:08:25.298Z,2.65
2023-05-05T17:10:52.140Z,2.10
2023-05-05T17:13:19.414Z,2.47
2023-05-05T17:15:46.895Z,2.10
2023-05-05T17:18:13.795Z,2.08
2023-05-05T17:20:42.809Z,2.80
2023-05-05T17:23:09.671Z,2.35
2023-05-05T17:25:36.612Z,1.73
2023-05-05T17:28:03.886Z,2.10
2023-05-05T17:30:31.108Z,1.80
2023-05-05T17:32:58.096Z,2.50
2023-05-05T17:35:25.036Z,2.22
2023-05-05T17:37:53.345Z,2.95
2023-05-05T17:42:47.272Z,2.13
2023-05-05T17:45:14.222Z,2.25
2023-05-05T17:47:41.153Z,2.70
2023-05-05T17:50:10.907Z,2.03
2023-05-05T17:52:38.045Z,2.60
2023-05-05T17:55:07.743Z,3.70
2023-05-05T17:57:35.459Z,2.38
2023-05-05T18:00:04.626Z,3.78
2023-05-05T18:02:39.396Z,3.08
2023-05-05T18:05:07.155Z,3.00
2023-05-05T18:07:34.587Z,3.67
2023-05-05T18:10:01.552Z,2.22
2023-05-05T18:12:29.982Z,3.45
2023-05-05T18:14:56.925Z,3.03
2023-05-05T18:17:23.820Z,3.25
2023-05-05T18:19:50.705Z,3.22
2023-05-05T18:22:17.735Z,2.78
2023-05-05T18:24:45.608Z,3.40
2023-05-05T18:27:12.945Z,3.28
2023-05-05T18:29:41.637Z,4.05
2023-05-05T18:32:08.544Z,3.08
2023-05-05T18:34:35.493Z,3.20
2023-05-05T18:37:02.686Z,4.07
2023-05-05T18:39:29.639Z,5.20
2023-05-05T18:41:56.573Z,4.40
2023-05-05T18:44:23.477Z,4.70
2023-05-05T18:46:52.000Z,5.00
2023-05-05T18:49:18.936Z,4.28
2023-05-05T18:51:45.787Z,4.65
2023-05-05T18:54:12.669Z,4.78
2023-05-05T18:56:39.628Z,4.38
2023-05-05T18:59:06.708Z,5.30
2023-05-05T19:01:33.571Z,4.38
2023-05-05T19:04:01.946Z,5.65
2023-05-05T19:06:28.986Z,6.88
2023-05-05T19:08:56.811Z,7.18
2023-05-05T19:11:23.781Z,6.57
2023-05-05T19:13:51.318Z,5.32
2023-05-05T19:16:18.546Z,5.72
2023-05-05T19:18:45.542Z,6.07
2023-05-05T19:21:13.757Z,5.15
2023-05-05T19:23:40.977Z,5.03
2023-05-05T19:26:07.880Z,5.85
2023-05-05T19:28:34.749Z,7.95
2023-05-05T19:31:01.774Z,6.85
2023-05-05T19:33:28.847Z,7.68
2023-05-05T19:35:55.689Z,7.30
2023-05-05T19:38:27.127Z,7.63
2023-05-05T19:40:54.127Z,7.70
2023-05-05T19:43:20.992Z,8.13
2023-05-05T19:45:47.997Z,9.38
2023-05-05T19:48:15.741Z,9.32
2023-05-05T19:50:42.712Z,7.68
2023-05-05T19:53:09.617Z,8.43
2023-05-05T19:55:38.312Z,10.13
2023-05-05T19:58:05.182Z,9.98
2023-05-05T20:00:32.117Z,9.35
2023-05-05T20:02:59.273Z,9.20
2023-05-05T20:05:26.343Z,7.10
2023-05-05T20:07:53.262Z,6.80
2023-05-05T20:10:20.182Z,7.35
2023-05-05T20:12:49.147Z,7.43
2023-05-05T20:15:19.765Z,9.38
2023-05-05T20:17:46.980Z,8.40
2023-05-05T20:20:17.103Z,9.23
2023-05-05T20:22:44.342Z,8.65
2023-05-05T20:25:11.357Z,9.45
2023-05-05T20:27:38.608Z,7.43
2023-05-05T20:30:08.857Z,6.70
2023-05-05T20:32:36.321Z,6.57
2023-05-05T20:35:05.539Z,5.53
2023-05-05T20:37:32.473Z,7.00
2023-05-05T20:39:59.443Z,7.45
2023-05-05T20:42:27.733Z,6.68
2023-05-05T20:44:54.702Z,6.38
2023-05-05T20:47:23.002Z,6.40
2023-05-05T20:49:49.916Z,7.15
2023-05-05T20:52:16.839Z,6.90
2023-05-05T20:54:43.675Z,6.78
2023-05-05T20:57:11.524Z,6.07
2023-05-05T20:59:38.456Z,6.95
2023-05-05T21:02:05.452Z,6.88
2023-05-05T21:04:33.824Z,6.55
2023-05-05T21:07:00.908Z,6.22
2023-05-05T21:09:27.860Z,7.88
2023-05-05T21:11:55.749Z,7.22
2023-05-05T21:14:23.429Z,8.35
2023-05-05T21:16:50.386Z,7.75
2023-05-05T21:21:45.623Z,9.02
2023-05-05T21:24:15.597Z,7.72
2023-05-05T21:26:43.140Z,7.65
2023-05-05T21:29:10.326Z,9.07
2023-05-05T21:31:37.724Z,8.70
2023-05-05T21:34:04.674Z,8.40
2023-05-05T21:36:33.730Z,9.95
2023-05-05T21:39:02.304Z,9.65
2023-05-05T21:41:29.186Z,9.13
2023-05-05T21:43:56.128Z,7.88
2023-05-05T21:46:23.086Z,8.15
2023-05-05T21:48:50.089Z,8.55
2023-05-05T21:51:17.457Z,8.30
2023-05-05T21:53:44.414Z,8.57
2023-05-05T21:56:12.654Z,7.35
2023-05-05T21:58:41.066Z,7.72
2023-05-05T22:01:08.041Z,6.03
2023-05-05T22:03:35.298Z,6.18
2023-05-05T22:06:02.311Z,6.25
2023-05-05T22:08:29.213Z,6.15
2023-05-05T22:10:56.211Z,7.95
2023-05-05T22:13:24.491Z,7.38
2023-05-05T22:15:51.548Z,8.27
2023-05-05T22:18:18.426Z,8.43
2023-05-05T22:20:45.311Z,9.15
2023-05-05T22:23:14.088Z,8.82
2023-05-05T22:25:41.131Z,8.10
2023-05-05T22:28:08.091Z,7.57
2023-05-05T22:30:36.335Z,8.35
2023-05-05T22:33:03.209Z,7.55
2023-05-05T22:35:30.157Z,8.15
2023-05-05T22:37:57.205Z,6.35
2023-05-05T22:40:24.152Z,7.22
2023-05-05T22:42:51.072Z,7.47
2023-05-05T22:45:18.075Z,8.20
2023-05-05T22:47:46.438Z,7.35
2023-05-05T22:50:13.524Z,7.32
2023-05-05T22:52:40.433Z,7.70
2023-05-05T22:55:08.448Z,6.97
2023-05-05T22:57:35.751Z,8.05
2023-05-05T23:00:03.659Z,6.88
2023-05-05T23:02:30.971Z,6.22
2023-05-05T23:04:59.278Z,8.20
2023-05-05T23:07:26.183Z,7.93
2023-05-05T23:09:53.147Z,6.53
2023-05-05T23:12:20.105Z,8.13
2023-05-05T23:14:47.172Z,8.07
2023-05-05T23:17:14.129Z,7.82
2023-05-05T23:19:40.971Z,7.82
2023-05-05T23:22:09.179Z,7.63
2023-05-05T23:24:36.098Z,7.30
2023-05-05T23:27:03.146Z,5.82
2023-05-05T23:29:30.136Z,8.02
2023-05-05T23:31:57.257Z,6.97
2023-05-05T23:34:24.371Z,5.93
2023-05-05T23:36:51.254Z,6.45
2023-05-05T23:39:19.476Z,6.35
2023-05-05T23:41:46.370Z,6.25
2023-05-05T23:44:13.248Z,5.18
2023-05-05T23:46:40.231Z,5.90
2023-05-05T23:49:07.234Z,5.47
2023-05-05T23:51:34.144Z,5.25
2023-05-05T23:54:01.269Z,5.10
2023-05-05T23:56:29.495Z,5.13
2023-05-05T23:58:56.405Z,5.65
